Latest Coastal Weather Observations for Hillarys Point Boat Harbour

IDW60701

Issued at 9:02 pm WST Friday 22 May 2015 (issued every 10 minutes, with the page automatically refreshed every 10 minutes)

About coastal observations | Map of coastal stations | Coastal observations for WA | Marine services | Other Formats
Station Details ID: 009265 Name: HILLARYS BOAT HARBOUR NTC AWS Lat: -31.83 Lon: 115.74 Height: 0.0 m
Data from the previous 72 hours. | See also: Recent months for locations in Western Australia
Date/Time
WST
Temp

°C
Wind Pressure Rain
since 9am
mm
Weather Cloud Vis
km
Sea
Height
m
Swell
Dir
 
Speed
knots
Gust
knots
hPa Trend Height
m
Period
s
Dir
22/09:00pm 15.6 ENE 1 2 1017.5 - - - - - - - - -
22/08:30pm 16.3 ENE 1 2 1017.5 - - - - - - - - -
22/08:00pm 16.4 ESE 1 3 1017.5 - - - - - - - - -
22/07:30pm 16.8 E 1 3 1017.3 - - - - - - - - -
22/07:00pm 17.5 SE 2 4 1017.4 - - - - - - - - -
22/06:30pm 18.3 SSW 1 7 1017.4 - - - - - - - - -
22/06:00pm 18.4 SSW 1 5 1017.0 - - - - - - - - -
22/05:30pm 18.6 SSW 1 4 1016.7 - - - - - - - - -
22/05:00pm 19.0 SSW 2 5 1016.6 - - - - - - - - -
22/04:30pm 19.4 SSW 2 5 1016.6 - - - - - - - - -
22/04:00pm 19.6 SSW 4 7 1016.5 - - - - - - - - -
22/03:30pm 19.5 SW 4 7 1016.4 - - - - - - - - -
22/03:00pm 19.9 SW 6 9 1016.4 - - - - - - - - -
22/02:30pm 19.8 SW 5 8 1016.3 - - - - - - - - -
22/02:00pm 19.4 SW 5 7 1016.4 - - - - - - - - -
22/01:30pm 19.2 WSW 5 7 1016.6 - - - - - - - - -
22/01:00pm 19.8 SW 4 5 1016.9 - - - - - - - - -
22/12:30pm 20.8 N 2 5 1017.4 - - - - - - - - -
22/12:00pm 19.9 NE 4 8 1017.9 - - - - - - - - -
22/11:30am 19.3 NE 5 9 1018.4 - - - - - - - - -
22/11:00am 18.6 NE 7 12 1018.8 - - - - - - - - -
22/10:30am 18.3 ENE 7 12 1019.1 - - - - - - - - -
22/10:00am 17.5 ENE 7 11 1019.2 - - - - - - - - -
22/09:30am 16.5 ENE 9 15 1019.3 - - - - - - - - -
22/09:00am 15.6 ENE 8 12 1019.5 - - - - - - - - -
22/08:30am 14.4 ENE 7 11 1019.7 - - - - - - - - -
22/08:00am 13.5 ENE 6 10 1019.9 - - - - - - - - -
22/07:30am 13.5 ENE 7 11 1019.6 - - - - - - - - -
22/07:00am 13.2 ENE 6 9 1019.5 - - - - - - - - -
22/06:30am 13.5 ENE 7 11 1019.4 - - - - - - - - -
22/06:00am 13.4 ENE 7 11 1019.4 - - - - - - - - -
22/05:30am 13.3 ENE 7 9 1019.6 - - - - - - - - -
22/05:00am 13.1 ENE 5 8 1019.7 - - - - - - - - -
22/04:30am 13.0 ENE 2 5 1019.8 - - - - - - - - -
22/04:00am 12.8 ENE 3 6 1019.7 - - - - - - - - -
22/03:30am 12.4 E 1 3 1019.8 - - - - - - - - -
22/03:00am 12.8 ESE 2 4 1020.1 - - - - - - - - -
22/02:30am 13.2 E 2 4 1020.4 - - - - - - - - -
22/02:00am 13.7 E 4 7 1020.6 - - - - - - - - -
22/01:30am 13.5 E 2 4 1020.9 - - - - - - - - -
22/01:00am 13.9 ESE 1 3 1021.3 - - - - - - - - -
22/12:30am 14.5 SSE 1 3 1021.4 - - - - - - - - -
22/12:00am 14.6 ENE 4 7 1021.5 - - - - - - - - -
 
Date/Time
WST
Temp

°C
Wind Pressure Rain
since 9am
mm
Weather Cloud Vis
km
Sea
Height
m
Swell
Dir
 
Speed
knots
Gust
knots
hPa Trend Height
m
Period
s
Dir
21/11:30pm 14.5 ESE 1 3 1021.5 - - - - - - - - -
21/11:00pm 15.4 ESE 1 3 1021.7 - - - - - - - - -
21/10:30pm 14.4 CALM 0 1 1022.0 - - - - - - - - -
21/10:00pm 15.0 E 1 2 1022.1 - - - - - - - - -
21/09:30pm 15.0 E 1 3 1022.0 - - - - - - - - -
21/09:00pm 15.1 CALM 0 2 1021.9 - - - - - - - - -
21/08:30pm 15.4 SE 1 3 1022.0 - - - - - - - - -
21/08:00pm 15.2 E 2 5 1021.9 - - - - - - - - -
21/07:30pm 15.5 ESE 1 4 1022.1 - - - - - - - - -
21/07:00pm 15.9 E 2 5 1022.2 - - - - - - - - -
21/06:30pm 16.1 E 2 5 1022.1 - - - - - - - - -
21/06:00pm 16.2 E 2 4 1021.9 - - - - - - - - -
21/05:30pm 16.7 E 2 5 1021.8 - - - - - - - - -
21/05:00pm 17.3 E 5 8 1021.7 - - - - - - - - -
21/04:30pm 17.5 E 4 9 1021.6 - - - - - - - - -
21/04:00pm 17.6 E 6 11 1021.8 - - - - - - - - -
21/03:30pm 17.6 E 8 15 1022.2 - - - - - - - - -
21/03:00pm 18.2 ENE 8 15 1022.3 - - - - - - - - -
21/02:30pm 18.2 ENE 8 14 1022.5 - - - - - - - - -
21/02:00pm 18.3 ENE 8 13 1022.7 - - - - - - - - -
21/01:30pm 17.4 ENE 9 15 1023.1 - - - - - - - - -
21/01:00pm 16.4 ENE 7 11 1023.6 - - - - - - - - -
21/12:30pm 15.6 ENE 9 15 1024.1 - - - - - - - - -
21/12:00pm 15.6 ENE 11 17 1024.5 - - - - - - - - -
21/11:30am 15.3 ENE 13 19 1024.8 - - - - - - - - -
21/11:00am 15.1 ENE 12 19 1025.3 - - - - - - - - -
21/10:30am 14.9 ENE 9 15 1025.7 - - - - - - - - -
21/10:00am 14.2 ENE 10 17 1025.8 - - - - - - - - -
21/09:30am 13.6 ENE 11 18 1026.0 - - - - - - - - -
21/09:00am 12.7 ENE 10 17 1026.3 - - - - - - - - -
21/08:30am 11.7 ENE 8 14 1026.5 - - - - - - - - -
21/08:00am 11.3 ENE 8 13 1026.3 - - - - - - - - -
21/07:30am 11.4 ENE 8 12 1026.1 - - - - - - - - -
21/07:00am 11.6 ENE 9 15 1026.0 - - - - - - - - -
21/06:30am 11.6 ENE 9 15 1025.9 - - - - - - - - -
21/06:00am 11.7 ENE 9 13 1025.8 - - - - - - - - -
21/05:30am 11.9 ENE 9 16 1025.7 - - - - - - - - -
21/05:00am 11.9 ENE 10 15 1025.7 - - - - - - - - -
21/04:30am 12.0 ENE 9 15 1025.6 - - - - - - - - -
21/04:00am 12.2 ENE 10 16 1025.6 - - - - - - - - -
21/03:30am 12.5 ENE 10 17 1025.8 - - - - - - - - -
21/03:00am 12.7 ENE 9 15 1025.9 - - - - - - - - -
21/02:30am 12.5 ENE 7 11 1026.1 - - - - - - - - -
21/02:00am 12.8 ENE 7 12 1026.3 - - - - - - - - -
21/01:30am 12.9 ENE 8 15 1026.4 - - - - - - - - -
21/01:00am 12.8 ENE 7 13 1026.6 - - - - - - - - -
21/12:30am 12.6 ENE 7 12 1026.9 - - - - - - - - -
21/12:00am 12.5 ENE 7 11 1026.9 - - - - - - - - -
 
Date/Time
WST
Temp

°C
Wind Pressure Rain
since 9am
mm
Weather Cloud Vis
km
Sea
Height
m
Swell
Dir
 
Speed
knots
Gust
knots
hPa Trend Height
m
Period
s
Dir
20/11:30pm 12.2 E 5 9 1027.1 - - - - - - - - -
20/11:00pm 12.2 E 5 9 1027.2 - - - - - - - - -
20/10:30pm 12.3 E 4 8 1027.4 - - - - - - - - -
20/10:00pm 12.1 E 3 8 1027.6 - - - - - - - - -
20/09:30pm 12.3 E 3 5 1027.8 - - - - - - - - -
20/09:00pm 12.7 E 3 7 1027.8 - - - - - - - - -
20/08:30pm 12.9 E 2 5 1027.8 - - - - - - - - -
20/08:00pm 13.3 E 2 6 1027.7 - - - - - - - - -
20/07:30pm 13.7 ESE 2 6 1027.7 - - - - - - - - -
20/07:00pm 14.1 E 2 5 1027.6 - - - - - - - - -
20/06:30pm 14.2 E 2 4 1027.5 - - - - - - - - -
20/06:00pm 14.8 E 3 7 1027.4 - - - - - - - - -
20/05:30pm 15.3 E 3 5 1027.3 - - - - - - - - -
20/05:00pm 15.8 ENE 7 13 1027.1 - - - - - - - - -
20/04:30pm 16.1 ENE 8 16 1026.8 - - - - - - - - -
20/04:00pm 16.3 ENE 10 17 1026.8 - - - - - - - - -
20/03:30pm 16.5 ENE 10 15 1026.6 - - - - - - - - -
20/03:00pm 16.7 E 6 15 1026.6 - - - - - - - - -
20/02:30pm 16.8 ENE 8 16 1026.6 - - - - - - - - -
20/02:00pm 16.5 E 7 17 1026.7 - - - - - - - - -
20/01:30pm 16.2 E 9 19 1027.1 - - - - - - - - -
20/01:00pm 16.0 ENE 8 17 1027.3 - - - - - - - - -
20/12:30pm 15.6 E 9 19 1027.7 - - - - - - - - -
20/12:00pm 15.7 ENE 9 16 1028.1 - - - - - - - - -
20/11:30am 15.3 ENE 11 18 1028.5 - - - - - - - - -
20/11:00am 14.9 ENE 11 15 1028.8 - - - - - - - - -
20/10:30am 14.5 ENE 10 19 1029.1 - - - - - - - - -
20/10:00am 13.8 E 7 13 1029.2 - - - - - - - - -
20/09:30am 13.0 E 9 17 1029.2 - - - - - - - - -
20/09:00am 12.3 ENE 10 16 1029.1 - - - - - - - - -
20/08:30am 11.6 E 6 13 1029.0 - - - - - - - - -
20/08:00am 10.8 E 4 9 1028.9 - - - - - - - - -
20/07:30am 9.9 E 4 8 1028.6 - - - - - - - - -
20/07:00am 9.8 E 4 9 1028.3 - - - - - - - - -
20/06:30am 9.6 E 3 6 1028.0 - - - - - - - - -
20/06:00am 9.7 E 3 8 1027.8 - - - - - - - - -
20/05:30am 10.3 E 4 9 1027.6 - - - - - - - - -
20/05:00am 10.6 E 5 11 1027.4 - - - - - - - - -
20/04:30am 10.7 E 5 11 1027.2 - - - - - - - - -
20/04:00am 11.0 E 5 11 1027.1 - - - - - - - - -
20/03:30am 11.1 E 5 10 1027.2 - - - - - - - - -
20/03:00am 11.0 E 4 9 1027.2 - - - - - - - - -
20/02:30am 11.3 E 5 10 1027.2 - - - - - - - - -
20/02:00am 11.4 E 4 9 1027.2 - - - - - - - - -
20/01:30am 11.4 E 4 7 1027.2 - - - - - - - - -
20/01:00am 11.7 E 3 6 1027.2 - - - - - - - - -
20/12:30am 12.0 E 3 7 1027.1 - - - - - - - - -
20/12:00am 12.3 E 4 10 1027.0 - - - - - - - - -
 
Date/Time
WST
Temp

°C
Wind Pressure Rain
since 9am
mm
Weather Cloud Vis
km
Sea
Height
m
Swell
Dir
 
Speed
knots
Gust
knots
hPa Trend Height
m
Period
s
Dir
19/11:30pm 12.4 E 3 7 1027.0 - - - - - - - - -
19/11:00pm 12.5 ESE 2 6 1027.0 - - - - - - - - -
19/10:30pm 12.5 E 1 4 1027.0 - - - - - - - - -
19/10:00pm 13.0 ESE 1 4 1026.9 - - - - - - - - -
19/09:30pm 13.2 SE 2 5 1026.8 - - - - - - - - -

Other Formats:

Comma delimited format used in spreadsheet applications
http://www.bom.gov.au/fwo/IDW60701/IDW60701.95605.axf

JavaScript Object Notation format (JSON) in row-major order
http://www.bom.gov.au/fwo/IDW60701/IDW60701.95605.json